Time;durP1;ratioP1;P1;durP2;ratioP2;P2;SDS_P1;SDS_P2;PMS_P1;PMS_P2;Temp;Humidity;BMP_temperature;BMP_pressure;BME280_temperature;BME280_humidity;BME280_pressure;Samples;Min_cycle;Max_cycle;Signal;HPM_P1;HPM_P2
2021/12/27 00:02:06;;;;;;;31.15;15.65;;;;;;;;;;5053217;28;20049;-66
2021/12/27 00:04:32;;;;;;;33.05;16.95;;;;;;;;;;5052659;28;20044;-66
2021/12/27 00:06:58;;;;;;;30.35;16.50;;;;;;;;;;5053945;28;20094;-65
2021/12/27 00:09:24;;;;;;;31.35;16.77;;;;;;;;;;5053743;28;20052;-66
2021/12/27 00:11:50;;;;;;;32.28;17.50;;;;;;;;;;5054292;28;20391;-65
2021/12/27 00:14:16;;;;;;;32.13;16.58;;;;;;;;;;5054073;28;20137;-65
2021/12/27 00:16:42;;;;;;;32.55;17.70;;;;;;;;;;5052824;28;20409;-65
2021/12/27 00:19:09;;;;;;;31.92;17.25;;;;;;;;;;5052694;28;20515;-66
2021/12/27 00:21:35;;;;;;;36.08;17.17;;;;;;;;;;5053610;28;20101;-66
2021/12/27 00:24:01;;;;;;;31.67;16.58;;;;;;;;;;5052600;28;20486;-66
2021/12/27 00:26:27;;;;;;;33.08;17.88;;;;;;;;;;5052474;28;20057;-66
2021/12/27 00:28:53;;;;;;;32.97;16.27;;;;;;;;;;5053477;28;20479;-66
2021/12/27 00:31:19;;;;;;;32.47;18.40;;;;;;;;;;5054136;28;20118;-68
2021/12/27 00:33:45;;;;;;;35.28;17.88;;;;;;;;;;5052017;28;20046;-66
2021/12/27 00:36:11;;;;;;;33.30;17.25;;;;;;;;;;5053858;28;20048;-66
2021/12/27 00:38:37;;;;;;;38.40;18.38;;;;;;;;;;5053544;28;20137;-66
2021/12/27 00:41:03;;;;;;;35.63;17.48;;;;;;;;;;5052203;28;20084;-66
2021/12/27 00:43:29;;;;;;;30.73;17.55;;;;;;;;;;5053033;28;20452;-66
2021/12/27 00:45:55;;;;;;;37.22;18.38;;;;;;;;;;5052590;28;20045;-66
2021/12/27 00:48:21;;;;;;;35.67;17.65;;;;;;;;;;5028154;28;20476;-66
2021/12/27 00:50:47;;;;;;;32.95;17.85;;;;;;;;;;5048194;28;20041;-66
2021/12/27 00:53:13;;;;;;;32.10;17.88;;;;;;;;;;5036726;28;20051;-66
2021/12/27 00:55:39;;;;;;;35.85;17.95;;;;;;;;;;5052030;28;20049;-66
2021/12/27 00:58:05;;;;;;;32.40;17.52;;;;;;;;;;5052629;28;20052;-66
2021/12/27 01:00:32;;;;;;;32.40;17.83;;;;;;;;;;5051690;28;20118;-66
2021/12/27 01:02:58;;;;;;;32.92;16.90;;;;;;;;;;5051638;28;20124;-66
2021/12/27 01:05:25;;;;;;;33.40;18.33;;;;;;;;;;5052705;28;20037;-67
2021/12/27 01:07:51;;;;;;;32.75;18.42;;;;;;;;;;5051612;28;20049;-66
2021/12/27 01:18:29;;;;;;;32.80;16.65;;;;;;;;;;4973096;28;20186;-67
2021/12/27 01:20:55;;;;;;;38.67;18.55;;;;;;;;;;4971809;28;20093;-66
2021/12/27 01:23:21;;;;;;;33.63;18.80;;;;;;;;;;4955671;28;20514;-67
2021/12/27 01:25:47;;;;;;;34.17;17.90;;;;;;;;;;4955975;28;20049;-67
2021/12/27 01:28:13;;;;;;;34.03;18.42;;;;;;;;;;4972634;28;20062;-67
2021/12/27 01:30:47;;;;;;;33.20;17.48;;;;;;;;;;4971356;28;20510;-67
2021/12/27 01:33:14;;;;;;;37.67;18.80;;;;;;;;;;4939588;28;20069;-67
2021/12/27 01:35:40;;;;;;;33.90;18.70;;;;;;;;;;4955543;28;20083;-66
2021/12/27 01:38:06;;;;;;;34.67;18.15;;;;;;;;;;4956536;28;20065;-66
2021/12/27 01:40:32;;;;;;;32.13;17.52;;;;;;;;;;4955526;28;20046;-66
2021/12/27 01:43:10;;;;;;;35.42;18.75;;;;;;;;;;4971387;28;20054;-66
2021/12/27 01:45:37;;;;;;;37.05;18.60;;;;;;;;;;4971785;28;20089;-66
2021/12/27 01:48:06;;;;;;;32.42;17.42;;;;;;;;;;4970442;28;20530;-66
2021/12/27 01:50:32;;;;;;;35.75;18.90;;;;;;;;;;5050882;28;20490;-66
2021/12/27 01:52:58;;;;;;;34.13;18.73;;;;;;;;;;5050932;28;20033;-66
2021/12/27 01:55:24;;;;;;;36.22;19.33;;;;;;;;;;5051785;28;20033;-66
2021/12/27 01:57:50;;;;;;;34.75;19.92;;;;;;;;;;5052219;28;20064;-66
2021/12/27 02:00:17;;;;;;;38.78;19.75;;;;;;;;;;5035157;28;20446;-66
2021/12/27 02:02:44;;;;;;;35.45;19.08;;;;;;;;;;5050614;28;20049;-66
2021/12/27 02:05:10;;;;;;;31.17;18.02;;;;;;;;;;5050731;28;20530;-66
2021/12/27 02:07:36;;;;;;;35.05;18.55;;;;;;;;;;5050787;28;20083;-66
2021/12/27 02:10:03;;;;;;;36.80;19.60;;;;;;;;;;5052029;28;20072;-66
2021/12/27 02:12:30;;;;;;;34.63;18.88;;;;;;;;;;5038963;28;20045;-66
2021/12/27 02:14:56;;;;;;;38.92;20.15;;;;;;;;;;5053956;28;20041;-66
2021/12/27 02:17:23;;;;;;;51.20;21.27;;;;;;;;;;5056022;28;20041;-66
2021/12/27 02:19:52;;;;;;;49.40;22.33;;;;;;;;;;5054855;28;20048;-66
2021/12/27 02:22:18;;;;;;;46.00;20.17;;;;;;;;;;5056882;28;20079;-66
2021/12/27 02:24:44;;;;;;;35.60;18.63;;;;;;;;;;5054548;28;20049;-66
2021/12/27 02:27:14;;;;;;;35.33;19.27;;;;;;;;;;5055939;28;20045;-66
2021/12/27 02:29:40;;;;;;;36.08;18.25;;;;;;;;;;5054203;28;20064;-66
2021/12/27 02:32:06;;;;;;;35.47;19.85;;;;;;;;;;5054857;28;20036;-67
2021/12/27 02:34:32;;;;;;;35.22;18.80;;;;;;;;;;5055405;28;20048;-67
2021/12/27 02:36:59;;;;;;;35.22;18.48;;;;;;;;;;5055038;28;20045;-66
2021/12/27 02:39:25;;;;;;;35.10;19.27;;;;;;;;;;5054480;28;20430;-67
2021/12/27 02:41:52;;;;;;;33.50;19.08;;;;;;;;;;5055377;28;20041;-66
2021/12/27 02:44:18;;;;;;;39.17;19.73;;;;;;;;;;5054812;28;20163;-67
2021/12/27 02:46:44;;;;;;;33.08;17.98;;;;;;;;;;5054167;28;20045;-66
2021/12/27 02:49:10;;;;;;;35.78;19.52;;;;;;;;;;5054535;28;20052;-67
2021/12/27 02:51:36;;;;;;;35.50;19.13;;;;;;;;;;5055421;28;20045;-67
2021/12/27 02:54:02;;;;;;;39.15;19.17;;;;;;;;;;5054655;28;20127;-66
2021/12/27 02:56:29;;;;;;;32.42;19.10;;;;;;;;;;5054387;28;20084;-67
2021/12/27 02:58:57;;;;;;;35.30;19.20;;;;;;;;;;5053901;28;20491;-66
2021/12/27 03:01:24;;;;;;;35.60;19.98;;;;;;;;;;5037293;28;20074;-67
2021/12/27 03:03:50;;;;;;;38.28;19.23;;;;;;;;;;5054898;28;20052;-67
2021/12/27 03:06:16;;;;;;;32.45;19.08;;;;;;;;;;5053670;28;20087;-67
2021/12/27 03:08:43;;;;;;;33.22;18.33;;;;;;;;;;5053953;28;20456;-66
2021/12/27 03:11:10;;;;;;;37.63;19.42;;;;;;;;;;5037088;28;20432;-65
2021/12/27 03:13:37;;;;;;;35.72;20.48;;;;;;;;;;5055829;28;20045;-66
2021/12/27 03:16:05;;;;;;;37.35;19.75;;;;;;;;;;5037407;28;20049;-67
2021/12/27 03:18:33;;;;;;;42.43;20.93;;;;;;;;;;5053670;28;20076;-67
2021/12/27 03:20:59;;;;;;;33.42;18.65;;;;;;;;;;5053222;28;20049;-66
2021/12/27 03:23:25;;;;;;;38.03;19.60;;;;;;;;;;5053675;28;20537;-67
2021/12/27 03:25:53;;;;;;;33.58;19.10;;;;;;;;;;5037719;28;20045;-66
2021/12/27 03:28:19;;;;;;;39.05;20.77;;;;;;;;;;5053398;28;20178;-67
2021/12/27 03:30:45;;;;;;;35.88;19.65;;;;;;;;;;5054605;28;20128;-67
2021/12/27 03:33:11;;;;;;;36.75;20.35;;;;;;;;;;5054717;28;20049;-67
2021/12/27 03:35:40;;;;;;;40.60;20.35;;;;;;;;;;5053496;28;20049;-66
2021/12/27 03:38:11;;;;;;;36.65;19.90;;;;;;;;;;5055488;28;20052;-67
2021/12/27 03:40:39;;;;;;;35.45;19.77;;;;;;;;;;5037148;28;20049;-67
2021/12/27 03:43:05;;;;;;;38.03;20.25;;;;;;;;;;5053220;28;20056;-67
2021/12/27 03:45:36;;;;;;;39.20;21.17;;;;;;;;;;5053543;28;20132;-67
2021/12/27 03:48:03;;;;;;;38.58;20.65;;;;;;;;;;5046825;28;20057;-67
2021/12/27 03:50:29;;;;;;;34.63;19.90;;;;;;;;;;5054383;28;20045;-66
2021/12/27 03:52:56;;;;;;;36.42;20.67;;;;;;;;;;5054354;28;20048;-67
2021/12/27 03:55:23;;;;;;;34.92;19.33;;;;;;;;;;5052796;28;20137;-67
2021/12/27 03:58:05;;;;;;;33.63;19.80;;;;;;;;;;5052789;28;20037;-67
2021/12/27 04:01:16;;;;;;;36.05;20.05;;;;;;;;;;5054332;28;20088;-68
2021/12/27 04:03:17;;;;;;;37.42;20.83;;;;;;;;;;5039864;28;20094;-67
2021/12/27 04:05:44;;;;;;;38.80;19.88;;;;;;;;;;5053628;28;20052;-67
2021/12/27 04:08:10;;;;;;;36.97;19.48;;;;;;;;;;5053758;28;20048;-65
2021/12/27 04:10:38;;;;;;;37.55;20.35;;;;;;;;;;5052955;28;20517;-66
2021/12/27 04:13:04;;;;;;;38.10;19.77;;;;;;;;;;5054938;28;20128;-66
2021/12/27 04:15:31;;;;;;;37.90;19.20;;;;;;;;;;5052366;28;20041;-66
2021/12/27 04:17:57;;;;;;;41.90;20.90;;;;;;;;;;5052739;28;20554;-66
2021/12/27 04:20:23;;;;;;;38.40;19.95;;;;;;;;;;5053730;28;20092;-66
2021/12/27 04:22:49;;;;;;;33.83;19.45;;;;;;;;;;5036616;28;20049;-66
2021/12/27 04:25:16;;;;;;;35.90;20.75;;;;;;;;;;5053822;28;20048;-66
2021/12/27 04:27:42;;;;;;;37.63;20.65;;;;;;;;;;5053472;28;20060;-66
2021/12/27 04:30:08;;;;;;;39.22;20.20;;;;;;;;;;5053220;28;20067;-66
2021/12/27 04:32:34;;;;;;;38.72;20.92;;;;;;;;;;5051882;28;20045;-66
2021/12/27 04:35:00;;;;;;;36.53;19.73;;;;;;;;;;5053532;28;20384;-66
2021/12/27 04:37:29;;;;;;;38.83;20.58;;;;;;;;;;5054364;28;20072;-65
2021/12/27 04:39:55;;;;;;;37.95;19.33;;;;;;;;;;5052174;28;20051;-65
2021/12/27 04:42:21;;;;;;;40.55;20.88;;;;;;;;;;5053326;28;20048;-66
2021/12/27 04:44:47;;;;;;;35.38;20.10;;;;;;;;;;5053212;28;20102;-67
2021/12/27 04:47:16;;;;;;;44.17;20.85;;;;;;;;;;5052744;28;20041;-66
2021/12/27 04:49:42;;;;;;;37.97;21.13;;;;;;;;;;5051890;28;20041;-66
2021/12/27 04:52:09;;;;;;;36.92;20.65;;;;;;;;;;5052605;28;20044;-66
2021/12/27 04:54:35;;;;;;;38.22;20.17;;;;;;;;;;5052866;28;20049;-66
2021/12/27 04:57:01;;;;;;;39.60;19.90;;;;;;;;;;5051664;28;20063;-66
2021/12/27 04:59:27;;;;;;;35.95;18.90;;;;;;;;;;5053314;28;20132;-66
2021/12/27 05:01:53;;;;;;;37.53;20.15;;;;;;;;;;5052881;28;20049;-66
2021/12/27 05:04:19;;;;;;;37.90;20.40;;;;;;;;;;5052964;28;20458;-66
2021/12/27 05:06:45;;;;;;;39.65;20.70;;;;;;;;;;5052792;28;20045;-67
2021/12/27 05:09:11;;;;;;;38.58;20.40;;;;;;;;;;5051630;28;20055;-67
2021/12/27 05:11:37;;;;;;;39.25;20.33;;;;;;;;;;5051546;28;20045;-67
2021/12/27 05:14:03;;;;;;;37.00;19.98;;;;;;;;;;5051509;28;20045;-66
2021/12/27 05:16:29;;;;;;;40.20;20.27;;;;;;;;;;5052267;28;20128;-66
2021/12/27 05:18:55;;;;;;;38.50;20.45;;;;;;;;;;5035216;28;20133;-66
2021/12/27 05:21:21;;;;;;;36.63;19.90;;;;;;;;;;5051709;28;20041;-66
2021/12/27 05:23:47;;;;;;;36.38;20.38;;;;;;;;;;5052429;28;20045;-67
2021/12/27 05:26:13;;;;;;;39.28;21.50;;;;;;;;;;5052199;28;20041;-66
2021/12/27 05:28:41;;;;;;;37.97;20.10;;;;;;;;;;5034701;28;20130;-66
2021/12/27 05:31:07;;;;;;;44.58;20.42;;;;;;;;;;5052583;28;20048;-66
2021/12/27 05:33:33;;;;;;;39.00;21.23;;;;;;;;;;5051699;28;20124;-67
2021/12/27 05:35:59;;;;;;;40.83;21.00;;;;;;;;;;5051072;28;20133;-67
2021/12/27 05:38:25;;;;;;;36.53;19.60;;;;;;;;;;5051321;28;20110;-67
2021/12/27 05:40:52;;;;;;;36.92;19.92;;;;;;;;;;5053380;28;20045;-67
2021/12/27 05:43:19;;;;;;;40.22;21.60;;;;;;;;;;5051561;28;20106;-66
2021/12/27 05:45:45;;;;;;;42.20;21.75;;;;;;;;;;5025253;28;20052;-67
2021/12/27 05:48:11;;;;;;;42.80;22.13;;;;;;;;;;5035253;28;20037;-66
2021/12/27 05:50:37;;;;;;;40.05;19.92;;;;;;;;;;5052326;28;20044;-67
2021/12/27 05:53:03;;;;;;;43.72;20.00;;;;;;;;;;5022173;28;20480;-66
2021/12/27 05:55:29;;;;;;;39.28;21.02;;;;;;;;;;5047305;28;20045;-66
2021/12/27 05:57:56;;;;;;;40.15;20.38;;;;;;;;;;5031258;28;20060;-65
2021/12/27 06:00:22;;;;;;;37.40;19.35;;;;;;;;;;5052306;28;20071;-65
2021/12/27 06:02:48;;;;;;;38.55;21.08;;;;;;;;;;5052118;28;20041;-66
2021/12/27 06:05:17;;;;;;;40.50;20.30;;;;;;;;;;5052983;28;20049;-66
2021/12/27 06:07:43;;;;;;;38.83;20.67;;;;;;;;;;5052085;28;20121;-66
2021/12/27 06:10:10;;;;;;;38.70;20.80;;;;;;;;;;5051502;28;20049;-66
2021/12/27 06:12:37;;;;;;;35.80;20.45;;;;;;;;;;5050685;28;20376;-66
2021/12/27 06:15:03;;;;;;;38.08;20.52;;;;;;;;;;5050676;28;20077;-66
2021/12/27 06:17:31;;;;;;;39.30;20.58;;;;;;;;;;5051951;28;20110;-65
2021/12/27 06:19:57;;;;;;;39.63;20.73;;;;;;;;;;5050497;28;20048;-66
2021/12/27 06:22:23;;;;;;;43.35;21.00;;;;;;;;;;5052062;28;20044;-66
2021/12/27 06:24:49;;;;;;;38.25;20.65;;;;;;;;;;5050440;28;20044;-66
2021/12/27 06:27:15;;;;;;;37.30;20.45;;;;;;;;;;5035003;28;20052;-66
2021/12/27 06:29:41;;;;;;;40.05;20.60;;;;;;;;;;5052108;28;20057;-66
2021/12/27 06:32:13;;;;;;;38.30;20.92;;;;;;;;;;5050847;28;20056;-66
2021/12/27 06:34:39;;;;;;;39.97;20.40;;;;;;;;;;5051717;28;20052;-66
2021/12/27 06:37:05;;;;;;;37.50;19.85;;;;;;;;;;5052458;28;20049;-66
2021/12/27 06:39:31;;;;;;;38.97;20.30;;;;;;;;;;5050485;28;20037;-66
2021/12/27 06:41:57;;;;;;;43.17;21.95;;;;;;;;;;5052069;28;20052;-66
2021/12/27 06:44:23;;;;;;;41.50;21.10;;;;;;;;;;5051431;28;20045;-66
2021/12/27 06:46:49;;;;;;;44.08;21.35;;;;;;;;;;5050591;28;20044;-66
2021/12/27 06:49:15;;;;;;;41.35;21.55;;;;;;;;;;5050785;28;20033;-66
2021/12/27 06:51:42;;;;;;;41.75;21.02;;;;;;;;;;5052368;28;20091;-66
2021/12/27 06:54:07;;;;;;;47.45;21.85;;;;;;;;;;5051719;28;20060;-66
2021/12/27 06:56:33;;;;;;;44.13;21.73;;;;;;;;;;5051590;28;20045;-66
2021/12/27 06:59:02;;;;;;;42.63;22.08;;;;;;;;;;5054854;28;20045;-66
2021/12/27 07:01:28;;;;;;;40.67;21.27;;;;;;;;;;5038722;28;20518;-66
2021/12/27 07:03:54;;;;;;;38.40;20.48;;;;;;;;;;5031372;28;20510;-66
2021/12/27 07:06:22;;;;;;;42.95;22.25;;;;;;;;;;5054208;28;20045;-66
2021/12/27 07:08:48;;;;;;;41.70;21.42;;;;;;;;;;5055970;28;20045;-66
2021/12/27 07:11:14;;;;;;;42.55;22.60;;;;;;;;;;5055279;28;20502;-66
2021/12/27 07:13:40;;;;;;;37.88;21.20;;;;;;;;;;5054961;28;20091;-66
2021/12/27 07:16:06;;;;;;;60.83;23.35;;;;;;;;;;5054804;28;20045;-66
2021/12/27 07:18:32;;;;;;;41.75;21.95;;;;;;;;;;5053529;28;20075;-66
2021/12/27 07:20:58;;;;;;;63.85;22.85;;;;;;;;;;5053484;28;20154;-66
2021/12/27 07:23:24;;;;;;;58.20;22.02;;;;;;;;;;5053252;28;20044;-66
2021/12/27 07:25:50;;;;;;;67.93;23.67;;;;;;;;;;5036888;28;20044;-66
2021/12/27 07:28:17;;;;;;;76.28;26.85;;;;;;;;;;5054903;28;20041;-66
2021/12/27 07:30:43;;;;;;;63.30;23.88;;;;;;;;;;5056242;28;20056;-66
2021/12/27 07:33:09;;;;;;;75.53;25.77;;;;;;;;;;5054809;28;20169;-66
2021/12/27 07:35:35;;;;;;;101.50;30.90;;;;;;;;;;5032501;28;20072;-66
2021/12/27 07:38:02;;;;;;;65.68;26.20;;;;;;;;;;5053027;28;20625;-65
2021/12/27 07:40:28;;;;;;;51.92;23.58;;;;;;;;;;5037497;28;20128;-66
2021/12/27 07:42:54;;;;;;;69.80;25.30;;;;;;;;;;5054108;28;20047;-66
2021/12/27 07:45:20;;;;;;;144.93;34.05;;;;;;;;;;5037686;28;20056;-66
2021/12/27 07:47:46;;;;;;;79.93;26.63;;;;;;;;;;5053163;28;20509;-66
2021/12/27 07:50:12;;;;;;;114.50;30.42;;;;;;;;;;5053091;28;20406;-67
2021/12/27 07:52:39;;;;;;;68.22;25.73;;;;;;;;;;5054480;28;20032;-66
2021/12/27 07:55:05;;;;;;;142.27;36.45;;;;;;;;;;5053928;28;20080;-66
2021/12/27 07:57:31;;;;;;;49.38;22.88;;;;;;;;;;5054771;28;20399;-66
2021/12/27 07:59:57;;;;;;;80.85;26.88;;;;;;;;;;5053033;28;20044;-66
2021/12/27 08:02:23;;;;;;;89.95;27.65;;;;;;;;;;5052771;28;20043;-67
2021/12/27 08:04:49;;;;;;;216.35;48.35;;;;;;;;;;5036088;28;20055;-66
2021/12/27 08:07:15;;;;;;;106.07;32.95;;;;;;;;;;5036802;28;20128;-68
2021/12/27 08:09:41;;;;;;;169.10;43.70;;;;;;;;;;5052585;28;20048;-67
2021/12/27 08:12:09;;;;;;;260.17;58.38;;;;;;;;;;5054135;28;20425;-67
2021/12/27 08:14:35;;;;;;;192.52;42.17;;;;;;;;;;5053917;28;20048;-67
2021/12/27 08:17:01;;;;;;;111.13;32.92;;;;;;;;;;5053283;28;20052;-67
2021/12/27 08:19:27;;;;;;;164.02;39.25;;;;;;;;;;5052820;28;20049;-67
2021/12/27 08:21:53;;;;;;;112.50;30.85;;;;;;;;;;5052544;28;20049;-67
2021/12/27 08:24:19;;;;;;;102.18;30.83;;;;;;;;;;5054615;28;20143;-67
2021/12/27 08:26:45;;;;;;;115.10;30.95;;;;;;;;;;5052573;28;20118;-68
2021/12/27 08:29:11;;;;;;;57.85;24.15;;;;;;;;;;5052605;28;20464;-68
2021/12/27 08:31:37;;;;;;;108.90;32.53;;;;;;;;;;5054157;28;20053;-67
2021/12/27 08:34:03;;;;;;;95.25;29.90;;;;;;;;;;5054110;28;20492;-67
2021/12/27 08:36:29;;;;;;;77.30;28.58;;;;;;;;;;5055946;28;20103;-67
2021/12/27 08:38:55;;;;;;;74.18;26.50;;;;;;;;;;5057315;28;20041;-67
2021/12/27 08:41:27;;;;;;;77.82;26.15;;;;;;;;;;5055695;28;20114;-66
2021/12/27 08:43:54;;;;;;;136.00;35.60;;;;;;;;;;5038362;28;20098;-67
2021/12/27 08:46:20;;;;;;;90.93;29.77;;;;;;;;;;5055567;28;20527;-66
2021/12/27 08:48:48;;;;;;;;;;;;;;;;;;5037491;28;20041;-67
2021/12/27 08:51:14;;;;;;;177.70;42.53;;;;;;;;;;5051363;28;20011;-66
2021/12/27 08:53:40;;;;;;;189.80;42.40;;;;;;;;;;5053692;28;20045;-67
2021/12/27 08:56:06;;;;;;;456.42;78.68;;;;;;;;;;5054106;28;20041;-66
2021/12/27 08:58:32;;;;;;;328.05;58.33;;;;;;;;;;5053715;28;20051;-66
2021/12/27 09:00:58;;;;;;;180.93;38.00;;;;;;;;;;5053391;28;20399;-66
2021/12/27 09:03:24;;;;;;;288.20;50.75;;;;;;;;;;5055800;28;20045;-66
2021/12/27 09:05:50;;;;;;;305.92;48.95;;;;;;;;;;5058275;28;20051;-66
2021/12/27 09:08:16;;;;;;;258.05;45.70;;;;;;;;;;5023762;28;20449;-66
2021/12/27 09:10:43;;;;;;;249.45;44.05;;;;;;;;;;5053697;28;20049;-66
2021/12/27 09:13:09;;;;;;;109.25;29.55;;;;;;;;;;5062160;28;20040;-66
2021/12/27 09:15:35;;;;;;;122.15;30.42;;;;;;;;;;5061431;28;20076;-66
2021/12/27 09:18:01;;;;;;;92.80;28.17;;;;;;;;;;5043345;28;20041;-66
2021/12/27 09:20:28;;;;;;;160.52;35.65;;;;;;;;;;5057246;28;20048;-66
2021/12/27 09:22:54;;;;;;;214.23;42.75;;;;;;;;;;5057166;28;20107;-66
2021/12/27 09:25:20;;;;;;;160.10;36.45;;;;;;;;;;5056762;28;20091;-67
2021/12/27 09:27:46;;;;;;;152.05;35.05;;;;;;;;;;5058251;28;20046;-67
2021/12/27 09:30:12;;;;;;;168.20;41.88;;;;;;;;;;5058680;28;20506;-67
2021/12/27 09:32:38;;;;;;;238.23;45.92;;;;;;;;;;5056940;28;20049;-68
2021/12/27 09:35:05;;;;;;;330.75;74.65;;;;;;;;;;5055381;28;20518;-68
2021/12/27 09:37:31;;;;;;;244.73;52.75;;;;;;;;;;5056026;28;20395;-67
2021/12/27 09:39:58;;;;;;;211.70;49.20;;;;;;;;;;5055666;28;20049;-67
2021/12/27 09:42:25;;;;;;;167.80;38.65;;;;;;;;;;5052270;28;20372;-67
2021/12/27 09:44:52;;;;;;;367.08;64.35;;;;;;;;;;5057906;28;20040;-66
2021/12/27 09:47:18;;;;;;;149.18;39.42;;;;;;;;;;5057740;28;20129;-67
2021/12/27 09:49:45;;;;;;;153.75;37.92;;;;;;;;;;5053986;28;20048;-67
2021/12/27 09:52:11;;;;;;;107.10;31.08;;;;;;;;;;5052769;28;20529;-68
2021/12/27 09:54:38;;;;;;;132.70;35.03;;;;;;;;;;5050959;28;20088;-68
2021/12/27 09:57:05;;;;;;;93.07;29.80;;;;;;;;;;5051402;28;20514;-67
2021/12/27 09:59:31;;;;;;;87.43;27.83;;;;;;;;;;5038042;28;20044;-68
2021/12/27 10:01:57;;;;;;;314.95;51.03;;;;;;;;;;5055690;28;20044;-67
2021/12/27 10:04:23;;;;;;;102.97;29.92;;;;;;;;;;5035065;28;20161;-66
2021/12/27 10:06:52;;;;;;;153.00;34.40;;;;;;;;;;5053567;28;20049;-67
2021/12/27 10:09:18;;;;;;;90.63;29.20;;;;;;;;;;5057192;28;20059;-67
2021/12/27 10:11:46;;;;;;;120.90;31.83;;;;;;;;;;5054730;28;20048;-67
2021/12/27 10:14:13;;;;;;;97.82;29.77;;;;;;;;;;5053474;28;20053;-67
2021/12/27 10:16:40;;;;;;;104.38;29.58;;;;;;;;;;5053681;28;20087;-67
2021/12/27 10:19:08;;;;;;;119.35;30.23;;;;;;;;;;5052390;28;20045;-67
2021/12/27 10:21:41;;;;;;;137.10;34.08;;;;;;;;;;5053446;28;20483;-67
2021/12/27 10:24:14;;;;;;;154.18;34.63;;;;;;;;;;5053010;28;20085;-67
2021/12/27 10:26:42;;;;;;;106.65;30.77;;;;;;;;;;5053290;28;20041;-67
2021/12/27 10:29:08;;;;;;;152.35;36.58;;;;;;;;;;5052859;28;20132;-67
2021/12/27 10:31:52;;;;;;;118.43;32.15;;;;;;;;;;5053957;28;20128;-67
2021/12/27 10:34:18;;;;;;;158.95;37.92;;;;;;;;;;5056743;28;20049;-67
2021/12/27 10:37:03;;;;;;;114.47;31.67;;;;;;;;;;5056190;28;20483;-66
2021/12/27 10:39:49;;;;;;;125.10;32.60;;;;;;;;;;5056298;28;20091;-67
2021/12/27 10:42:35;;;;;;;177.80;40.20;;;;;;;;;;5025045;28;20080;-67
2021/12/27 10:45:04;;;;;;;186.35;39.13;;;;;;;;;;5056508;28;20395;-67
2021/12/27 10:48:02;;;;;;;109.18;29.20;;;;;;;;;;5055928;28;20055;-67
2021/12/27 10:50:30;;;;;;;93.97;27.88;;;;;;;;;;5039981;28;20059;-67
2021/12/27 10:53:00;;;;;;;122.47;31.02;;;;;;;;;;5056943;28;20056;-68
2021/12/27 10:55:31;;;;;;;123.97;32.45;;;;;;;;;;5034770;28;20041;-67
2021/12/27 10:58:09;;;;;;;120.60;31.40;;;;;;;;;;5051494;28;20048;-67
2021/12/27 11:00:36;;;;;;;154.98;35.22;;;;;;;;;;5054640;28;20063;-67
2021/12/27 11:03:02;;;;;;;199.65;39.17;;;;;;;;;;5056520;28;20087;-67
2021/12/27 11:05:29;;;;;;;163.40;35.78;;;;;;;;;;5055451;28;20091;-67
2021/12/27 11:08:00;;;;;;;111.47;30.92;;;;;;;;;;5054377;28;20053;-67
2021/12/27 11:10:26;;;;;;;132.80;35.78;;;;;;;;;;5054781;28;20041;-67
2021/12/27 11:12:52;;;;;;;165.43;36.45;;;;;;;;;;5055763;28;20079;-67
2021/12/27 11:15:18;;;;;;;157.95;38.90;;;;;;;;;;5055463;28;20072;-68
2021/12/27 11:17:45;;;;;;;156.40;36.58;;;;;;;;;;5070294;28;20037;-67
2021/12/27 11:20:12;;;;;;;158.38;38.30;;;;;;;;;;5070410;28;20052;-67
2021/12/27 11:22:39;;;;;;;462.15;86.32;;;;;;;;;;5071679;28;20045;-67
2021/12/27 11:25:09;;;;;;;275.20;51.55;;;;;;;;;;5069758;28;20052;-68
2021/12/27 11:27:36;;;;;;;122.55;32.95;;;;;;;;;;5050879;28;20083;-67
2021/12/27 11:30:09;;;;;;;208.93;45.25;;;;;;;;;;5068381;28;20053;-67
2021/12/27 11:32:36;;;;;;;149.27;36.90;;;;;;;;;;5064902;28;20049;-68
2021/12/27 11:35:08;;;;;;;426.50;82.60;;;;;;;;;;5055704;28;20056;-68
2021/12/27 11:37:35;;;;;;;211.85;45.25;;;;;;;;;;5054509;28;20059;-67
2021/12/27 11:40:12;;;;;;;224.57;50.05;;;;;;;;;;5035758;28;20160;-68
2021/12/27 11:42:53;;;;;;;161.30;38.80;;;;;;;;;;5054558;28;20380;-68
2021/12/27 11:45:37;;;;;;;196.30;41.55;;;;;;;;;;5055660;28;20167;-68
2021/12/27 11:48:11;;;;;;;183.55;41.20;;;;;;;;;;5055164;28;20049;-68
2021/12/27 11:50:56;;;;;;;131.27;35.20;;;;;;;;;;5055428;28;20052;-67
2021/12/27 11:53:27;;;;;;;148.15;37.28;;;;;;;;;;5055442;28;20135;-68
2021/12/27 11:55:53;;;;;;;134.50;34.08;;;;;;;;;;5054771;28;20110;-68
2021/12/27 11:58:34;;;;;;;149.50;35.83;;;;;;;;;;5053858;28;20075;-68
2021/12/27 12:01:00;;;;;;;154.57;37.58;;;;;;;;;;5054788;28;20510;-68
2021/12/27 12:03:40;;;;;;;144.00;35.88;;;;;;;;;;5053796;28;20041;-68
2021/12/27 12:06:07;;;;;;;171.43;39.97;;;;;;;;;;5054688;28;20495;-67
2021/12/27 12:08:36;;;;;;;130.32;33.10;;;;;;;;;;5054643;28;20063;-67
2021/12/27 12:11:02;;;;;;;;;;;;;;;;;;5055356;28;20048;-67
2021/12/27 12:13:39;;;;;;;140.38;33.20;;;;;;;;;;5054875;28;19939;-68
2021/12/27 12:16:07;;;;;;;188.13;41.70;;;;;;;;;;5054581;28;20539;-68
2021/12/27 12:18:33;;;;;;;124.82;34.20;;;;;;;;;;5038428;28;20048;-68
2021/12/27 12:21:00;;;;;;;120.68;33.00;;;;;;;;;;5054278;28;20462;-68
2021/12/27 12:23:26;;;;;;;96.07;31.48;;;;;;;;;;5055545;28;20483;-68
2021/12/27 12:26:00;;;;;;;149.60;37.33;;;;;;;;;;5055515;28;20517;-68
2021/12/27 12:28:26;;;;;;;118.25;31.95;;;;;;;;;;5056587;28;20041;-68
2021/12/27 12:30:52;;;;;;;107.43;29.33;;;;;;;;;;5055553;28;20141;-69
2021/12/27 12:33:21;;;;;;;94.68;27.27;;;;;;;;;;5055956;28;20053;-68
2021/12/27 12:35:51;;;;;;;90.93;29.83;;;;;;;;;;5055965;28;20048;-68
2021/12/27 12:38:22;;;;;;;167.00;36.00;;;;;;;;;;5053366;28;20308;-68
2021/12/27 12:41:08;;;;;;;105.00;30.17;;;;;;;;;;5055399;28;20045;-68
2021/12/27 12:43:46;;;;;;;92.15;26.92;;;;;;;;;;5055336;28;20086;-68
2021/12/27 12:46:17;;;;;;;80.20;26.98;;;;;;;;;;5054894;28;20041;-68
2021/12/27 12:48:44;;;;;;;77.05;26.00;;;;;;;;;;5053704;28;20140;-68
2021/12/27 12:51:10;;;;;;;71.45;24.83;;;;;;;;;;5053124;28;20099;-67
2021/12/27 12:53:36;;;;;;;77.63;25.33;;;;;;;;;;5054137;28;20045;-66
2021/12/27 12:56:06;;;;;;;82.47;26.70;;;;;;;;;;5052025;28;20135;-67
2021/12/27 12:58:39;;;;;;;94.75;27.42;;;;;;;;;;5052341;28;20041;-67
2021/12/27 13:01:10;;;;;;;120.15;30.17;;;;;;;;;;5032687;28;20055;-67
2021/12/27 13:03:39;;;;;;;120.18;32.17;;;;;;;;;;5054842;28;20075;-67
2021/12/27 13:06:04;;;;;;;;;;;;;;;;;;5053238;28;20500;-67
2021/12/27 13:08:31;;;;;;;56.28;22.40;;;;;;;;;;5053561;28;20003;-67
2021/12/27 13:10:58;;;;;;;94.88;27.02;;;;;;;;;;5052232;28;20483;-67
2021/12/27 13:13:25;;;;;;;56.53;21.75;;;;;;;;;;5052914;28;20124;-67
2021/12/27 13:15:58;;;;;;;53.95;22.00;;;;;;;;;;5054247;28;20479;-67
2021/12/27 13:18:28;;;;;;;59.45;22.42;;;;;;;;;;5053811;28;20053;-67
2021/12/27 13:21:02;;;;;;;84.53;25.13;;;;;;;;;;5036373;28;20127;-67
2021/12/27 13:23:30;;;;;;;50.90;21.20;;;;;;;;;;5055102;28;20041;-66
2021/12/27 13:25:57;;;;;;;46.85;20.50;;;;;;;;;;5037936;28;20041;-67
2021/12/27 13:28:24;;;;;;;53.97;21.02;;;;;;;;;;5054790;28;20060;-66
2021/12/27 13:30:50;;;;;;;69.95;22.17;;;;;;;;;;5057011;28;20403;-66
2021/12/27 13:33:19;;;;;;;51.40;21.17;;;;;;;;;;5054922;28;20052;-66
2021/12/27 13:35:45;;;;;;;56.92;22.35;;;;;;;;;;5055878;28;20049;-66
2021/12/27 13:38:15;;;;;;;50.25;21.30;;;;;;;;;;5054958;28;20053;-66
2021/12/27 13:40:49;;;;;;;48.35;21.17;;;;;;;;;;5054788;28;20049;-66
2021/12/27 13:43:15;;;;;;;54.40;21.77;;;;;;;;;;5054327;28;20040;-67
2021/12/27 13:45:42;;;;;;;47.13;21.15;;;;;;;;;;5053517;28;20127;-67
2021/12/27 13:48:10;;;;;;;78.18;24.23;;;;;;;;;;5051349;28;20051;-66
2021/12/27 13:50:36;;;;;;;60.13;21.50;;;;;;;;;;5052514;28;20094;-66
2021/12/27 13:53:09;;;;;;;62.13;22.52;;;;;;;;;;5031698;28;20487;-66
2021/12/27 13:55:35;;;;;;;96.05;26.75;;;;;;;;;;5052185;28;20503;-66
2021/12/27 13:58:17;;;;;;;50.95;20.60;;;;;;;;;;5051243;28;20056;-66
2021/12/27 14:00:43;;;;;;;52.60;21.95;;;;;;;;;;5052510;28;20052;-65
2021/12/27 14:03:29;;;;;;;64.20;21.92;;;;;;;;;;5045189;28;20194;-66
2021/12/27 14:05:56;;;;;;;48.75;20.67;;;;;;;;;;5051787;28;20045;-66
2021/12/27 14:08:27;;;;;;;53.17;22.48;;;;;;;;;;5052003;28;20499;-66
2021/12/27 14:11:02;;;;;;;68.50;23.23;;;;;;;;;;5052270;28;20055;-66
2021/12/27 14:13:48;;;;;;;55.78;21.15;;;;;;;;;;5052773;28;20045;-66
2021/12/27 14:16:21;;;;;;;50.08;21.05;;;;;;;;;;5050770;28;20053;-66
2021/12/27 14:19:19;;;;;;;59.17;23.15;;;;;;;;;;5052597;28;20059;-66
2021/12/27 14:21:55;;;;;;;54.47;22.52;;;;;;;;;;5009735;28;20064;-66
2021/12/27 14:24:32;;;;;;;80.30;25.23;;;;;;;;;;5052712;28;20558;-67
2021/12/27 14:26:58;;;;;;;87.82;27.15;;;;;;;;;;5053374;28;20041;-66